Time;durP1;ratioP1;P1;durP2;ratioP2;P2;SDS_P1;SDS_P2;PMS_P1;PMS_P2;Temp;Humidity;BMP_temperature;BMP_pressure;BME280_temperature;BME280_humidity;BME280_pressure;Samples;Min_cycle;Max_cycle;Signal;HPM_P1;HPM_P2
2021/09/25 00:02:00;;;;;;;9.68;3.72;;;;;;;;;;5021440;28;20194;-70
2021/09/25 00:04:25;;;;;;;8.02;3.88;;;;;;;;;;5032620;28;20192;-70
2021/09/25 00:06:52;;;;;;;12.63;3.70;;;;;;;;;;5020220;28;20541;-71
2021/09/25 00:09:17;;;;;;;9.57;3.63;;;;;;;;;;5033278;28;20182;-71
2021/09/25 00:11:43;;;;;;;13.23;4.13;;;;;;;;;;5019364;28;20589;-70
2021/09/25 00:14:08;;;;;;;13.43;3.90;;;;;;;;;;5026950;28;20277;-70
2021/09/25 00:16:33;;;;;;;11.05;4.78;;;;;;;;;;5028731;28;20198;-70
2021/09/25 00:19:00;;;;;;;12.27;4.47;;;;;;;;;;5022882;28;20221;-69
2021/09/25 00:21:26;;;;;;;14.07;4.45;;;;;;;;;;5028125;28;20645;-70
2021/09/25 00:23:51;;;;;;;12.35;4.55;;;;;;;;;;5022034;28;20197;-70
2021/09/25 00:26:17;;;;;;;12.25;4.80;;;;;;;;;;5029958;28;20556;-70
2021/09/25 00:28:43;;;;;;;12.38;4.53;;;;;;;;;;5021546;28;20198;-69
2021/09/25 00:31:08;;;;;;;11.85;5.20;;;;;;;;;;5027270;28;20498;-70
2021/09/25 00:33:34;;;;;;;12.77;5.15;;;;;;;;;;5019103;28;20203;-70
2021/09/25 00:36:00;;;;;;;10.85;4.70;;;;;;;;;;5029557;28;20189;-71
2021/09/25 00:38:25;;;;;;;10.68;4.25;;;;;;;;;;5021593;28;20201;-72
2021/09/25 00:40:51;;;;;;;11.48;4.78;;;;;;;;;;5026701;28;20189;-72
2021/09/25 00:43:17;;;;;;;10.02;4.90;;;;;;;;;;5028248;28;20194;-71
2021/09/25 00:45:42;;;;;;;12.15;4.53;;;;;;;;;;5022374;28;20196;-71
2021/09/25 00:48:08;;;;;;;10.05;4.30;;;;;;;;;;5028386;28;20189;-70
2021/09/25 00:50:33;;;;;;;11.02;4.93;;;;;;;;;;5020836;28;20198;-70
2021/09/25 00:52:59;;;;;;;12.55;5.00;;;;;;;;;;5027860;28;20260;-70
2021/09/25 00:55:25;;;;;;;11.75;5.35;;;;;;;;;;5019653;28;20190;-71
2021/09/25 00:57:56;;;;;;;9.05;4.60;;;;;;;;;;5026579;28;20244;-71
2021/09/25 01:00:22;;;;;;;14.35;5.30;;;;;;;;;;5020070;28;20296;-71
2021/09/25 01:02:47;;;;;;;11.02;5.85;;;;;;;;;;5028725;28;20211;-71
2021/09/25 01:05:16;;;;;;;10.82;5.95;;;;;;;;;;5023958;28;20238;-70
2021/09/25 01:07:41;;;;;;;13.82;5.82;;;;;;;;;;5025643;28;20573;-69
2021/09/25 01:10:07;;;;;;;14.48;6.50;;;;;;;;;;5021217;28;20182;-69
2021/09/25 01:12:33;;;;;;;11.38;7.38;;;;;;;;;;5027581;28;20190;-69
2021/09/25 01:14:58;;;;;;;14.95;7.45;;;;;;;;;;5019403;28;20676;-69
2021/09/25 01:17:24;;;;;;;15.07;6.40;;;;;;;;;;5025381;28;20177;-69
2021/09/25 01:19:49;;;;;;;13.07;7.18;;;;;;;;;;5028358;28;20693;-70
2021/09/25 01:22:15;;;;;;;14.93;8.20;;;;;;;;;;5019683;28;20723;-70
2021/09/25 01:24:41;;;;;;;17.48;9.23;;;;;;;;;;5026994;28;20264;-69
2021/09/25 01:27:07;;;;;;;15.98;9.63;;;;;;;;;;5019105;28;20664;-69
2021/09/25 01:29:33;;;;;;;19.42;10.45;;;;;;;;;;5028674;28;20185;-69
2021/09/25 01:31:59;;;;;;;22.30;10.45;;;;;;;;;;5020541;28;20535;-70
2021/09/25 01:34:24;;;;;;;20.27;11.00;;;;;;;;;;5025932;28;20193;-69
2021/09/25 01:36:51;;;;;;;18.83;10.80;;;;;;;;;;5020427;28;20236;-69
2021/09/25 01:39:17;;;;;;;16.15;10.27;;;;;;;;;;5026284;28;20751;-69
2021/09/25 01:41:42;;;;;;;16.27;11.07;;;;;;;;;;5020680;28;20398;-70
2021/09/25 01:44:08;;;;;;;18.17;10.68;;;;;;;;;;5025479;28;20195;-70
2021/09/25 01:46:33;;;;;;;20.63;12.25;;;;;;;;;;5021485;28;20214;-70
2021/09/25 01:48:58;;;;;;;18.35;11.48;;;;;;;;;;5024583;28;20683;-69
2021/09/25 01:51:24;;;;;;;17.33;11.50;;;;;;;;;;5025176;28;20190;-70
2021/09/25 01:53:49;;;;;;;14.60;11.63;;;;;;;;;;5021931;28;21462;-70
2021/09/25 01:56:16;;;;;;;17.92;10.98;;;;;;;;;;5028615;28;20685;-70
2021/09/25 01:58:43;;;;;;;18.42;11.55;;;;;;;;;;5019627;28;20271;-70
2021/09/25 02:01:09;;;;;;;16.80;11.65;;;;;;;;;;5028496;28;20186;-71
2021/09/25 02:03:36;;;;;;;15.07;11.18;;;;;;;;;;5019659;28;20221;-70
2021/09/25 02:06:11;;;;;;;14.93;11.15;;;;;;;;;;5027607;28;20324;-70
2021/09/25 02:08:38;;;;;;;18.35;10.30;;;;;;;;;;5018383;28;21045;-70
2021/09/25 02:11:05;;;;;;;19.65;11.50;;;;;;;;;;5027099;28;20197;-70
2021/09/25 02:13:31;;;;;;;16.55;10.90;;;;;;;;;;5018160;28;20193;-70
2021/09/25 02:15:57;;;;;;;20.02;10.73;;;;;;;;;;5029220;28;20200;-70
2021/09/25 02:18:23;;;;;;;17.77;10.52;;;;;;;;;;5017048;28;20206;-69
2021/09/25 02:20:49;;;;;;;13.35;10.43;;;;;;;;;;5026037;28;24632;-70
2021/09/25 02:23:14;;;;;;;15.13;10.38;;;;;;;;;;5027042;28;20255;-70
2021/09/25 02:25:39;;;;;;;19.67;10.50;;;;;;;;;;5017373;28;20197;-70
2021/09/25 02:28:05;;;;;;;14.80;10.48;;;;;;;;;;5025596;28;20221;-69
2021/09/25 02:30:30;;;;;;;14.05;10.52;;;;;;;;;;5021572;28;20547;-70
2021/09/25 02:32:56;;;;;;;13.68;10.38;;;;;;;;;;5023829;28;20591;-70
2021/09/25 02:35:22;;;;;;;13.82;9.90;;;;;;;;;;5018345;28;20200;-70
2021/09/25 02:37:49;;;;;;;14.85;9.60;;;;;;;;;;5024969;28;20189;-70
2021/09/25 02:40:16;;;;;;;16.30;10.20;;;;;;;;;;5018786;28;20313;-70
2021/09/25 02:42:42;;;;;;;14.30;9.43;;;;;;;;;;5025807;28;20743;-71
2021/09/25 02:45:08;;;;;;;12.70;9.98;;;;;;;;;;5018558;28;20189;-70
2021/09/25 02:47:34;;;;;;;13.85;9.43;;;;;;;;;;5026576;28;20280;-70
2021/09/25 02:50:00;;;;;;;13.85;9.35;;;;;;;;;;5018954;28;20276;-70
2021/09/25 02:52:26;;;;;;;12.70;8.25;;;;;;;;;;5025120;28;20217;-70
2021/09/25 02:54:52;;;;;;;14.50;9.82;;;;;;;;;;5025466;28;20229;-70
2021/09/25 02:57:17;;;;;;;14.02;9.48;;;;;;;;;;5020413;28;20214;-70
2021/09/25 02:59:43;;;;;;;15.95;9.63;;;;;;;;;;5026780;28;20524;-70
2021/09/25 03:02:08;;;;;;;13.07;9.77;;;;;;;;;;5018044;28;20287;-70
2021/09/25 03:04:33;;;;;;;14.65;10.05;;;;;;;;;;5024401;28;21426;-70
2021/09/25 03:06:59;;;;;;;15.40;9.38;;;;;;;;;;5020062;28;20225;-70
2021/09/25 03:09:24;;;;;;;12.82;9.05;;;;;;;;;;5022227;28;23022;-71
2021/09/25 03:11:50;;;;;;;13.85;9.50;;;;;;;;;;5018912;28;20190;-70
2021/09/25 03:14:15;;;;;;;11.75;8.55;;;;;;;;;;5026205;28;20193;-70
2021/09/25 03:16:41;;;;;;;12.43;8.93;;;;;;;;;;5021626;28;20207;-70
2021/09/25 03:19:06;;;;;;;11.95;9.07;;;;;;;;;;5024948;28;20305;-70
2021/09/25 03:21:32;;;;;;;14.05;9.60;;;;;;;;;;5025693;28;20189;-70
2021/09/25 03:23:58;;;;;;;12.07;9.38;;;;;;;;;;5017566;28;20228;-70
2021/09/25 03:26:23;;;;;;;10.73;8.38;;;;;;;;;;5024956;28;20185;-70
2021/09/25 03:28:48;;;;;;;12.82;8.10;;;;;;;;;;5018418;28;20194;-70
2021/09/25 03:31:14;;;;;;;15.90;8.82;;;;;;;;;;5024988;28;20193;-69
2021/09/25 03:33:39;;;;;;;11.18;8.07;;;;;;;;;;5023340;28;20193;-70
2021/09/25 03:36:04;;;;;;;11.95;8.90;;;;;;;;;;5032061;28;22956;-69
2021/09/25 03:38:30;;;;;;;14.75;8.40;;;;;;;;;;5021480;28;20205;-70
2021/09/25 03:40:58;;;;;;;13.15;8.82;;;;;;;;;;5031306;28;20705;-69
2021/09/25 03:43:23;;;;;;;17.00;9.10;;;;;;;;;;5022915;28;21522;-70
2021/09/25 03:45:49;;;;;;;15.65;9.27;;;;;;;;;;5028564;28;20186;-69
2021/09/25 03:48:15;;;;;;;12.32;9.23;;;;;;;;;;5021240;28;20213;-69
2021/09/25 03:50:40;;;;;;;11.60;8.45;;;;;;;;;;5032039;28;20261;-69
2021/09/25 03:53:06;;;;;;;14.50;9.27;;;;;;;;;;5027087;28;20224;-69
2021/09/25 03:55:31;;;;;;;14.23;10.07;;;;;;;;;;5017828;28;20198;-70
2021/09/25 03:57:57;;;;;;;13.70;9.20;;;;;;;;;;5030156;28;20240;-70
2021/09/25 04:00:23;;;;;;;18.17;10.02;;;;;;;;;;5022864;28;20185;-70
2021/09/25 04:02:50;;;;;;;13.35;10.18;;;;;;;;;;5028573;28;20182;-70
2021/09/25 04:05:17;;;;;;;16.05;9.90;;;;;;;;;;5021797;28;20277;-70
2021/09/25 04:07:42;;;;;;;15.27;10.20;;;;;;;;;;5029006;28;20186;-71
2021/09/25 04:10:08;;;;;;;20.08;10.88;;;;;;;;;;5022130;28;20251;-70
2021/09/25 04:12:34;;;;;;;19.25;10.23;;;;;;;;;;5029646;28;20198;-69
2021/09/25 04:14:59;;;;;;;16.58;11.60;;;;;;;;;;5018253;28;20190;-70
2021/09/25 04:17:25;;;;;;;17.13;10.82;;;;;;;;;;5026073;28;20255;-70
2021/09/25 04:19:50;;;;;;;15.48;10.65;;;;;;;;;;5021905;28;20217;-69
2021/09/25 04:22:16;;;;;;;18.35;11.32;;;;;;;;;;5027521;28;20484;-69
2021/09/25 04:24:42;;;;;;;17.50;11.40;;;;;;;;;;5028996;28;20281;-70
2021/09/25 04:27:08;;;;;;;18.70;11.70;;;;;;;;;;5022109;28;20260;-70
2021/09/25 04:29:33;;;;;;;20.27;11.90;;;;;;;;;;5032571;28;20198;-69
2021/09/25 04:31:59;;;;;;;19.38;12.27;;;;;;;;;;5018258;28;20619;-70
2021/09/25 04:34:24;;;;;;;16.15;11.80;;;;;;;;;;5026593;28;20198;-70
2021/09/25 04:36:49;;;;;;;19.38;11.48;;;;;;;;;;5020339;28;20192;-70
2021/09/25 04:39:15;;;;;;;18.20;12.48;;;;;;;;;;5025795;28;21793;-70
2021/09/25 04:41:40;;;;;;;18.73;11.70;;;;;;;;;;5021930;28;20680;-70
2021/09/25 04:44:06;;;;;;;17.00;12.35;;;;;;;;;;5029362;28;20539;-69
2021/09/25 04:46:32;;;;;;;22.23;13.27;;;;;;;;;;5020368;28;20664;-70
2021/09/25 04:48:57;;;;;;;17.92;12.13;;;;;;;;;;5029680;28;20197;-70
2021/09/25 04:51:22;;;;;;;21.50;13.50;;;;;;;;;;5024381;28;21306;-70
2021/09/25 04:53:48;;;;;;;16.98;11.95;;;;;;;;;;5022745;28;20185;-70
2021/09/25 04:56:13;;;;;;;18.95;12.02;;;;;;;;;;5025064;28;20190;-70
2021/09/25 04:58:39;;;;;;;19.90;12.52;;;;;;;;;;5016613;28;20268;-70
2021/09/25 05:01:07;;;;;;;20.25;13.55;;;;;;;;;;5027952;28;20193;-70
2021/09/25 05:03:33;;;;;;;22.13;13.77;;;;;;;;;;5017739;28;20185;-70
2021/09/25 05:06:00;;;;;;;19.60;13.30;;;;;;;;;;5026161;28;20226;-70
2021/09/25 05:08:26;;;;;;;24.63;13.00;;;;;;;;;;5019919;28;20547;-70
2021/09/25 05:10:51;;;;;;;21.73;14.30;;;;;;;;;;5025066;28;20201;-70
2021/09/25 05:13:16;;;;;;;19.75;13.15;;;;;;;;;;5018106;28;20270;-70
2021/09/25 05:15:42;;;;;;;21.25;14.13;;;;;;;;;;5025483;28;20246;-70
2021/09/25 05:18:07;;;;;;;21.55;13.82;;;;;;;;;;5019351;28;20505;-71
2021/09/25 05:20:33;;;;;;;18.58;12.43;;;;;;;;;;5024471;28;20223;-70
2021/09/25 05:22:58;;;;;;;21.35;13.27;;;;;;;;;;5024820;28;20194;-70
2021/09/25 05:25:23;;;;;;;23.23;13.50;;;;;;;;;;5016896;28;20293;-70
2021/09/25 05:27:49;;;;;;;18.38;13.00;;;;;;;;;;5024739;28;20222;-71
2021/09/25 05:30:14;;;;;;;19.05;13.63;;;;;;;;;;4324290;28;10000861;-70
2021/09/25 05:32:40;;;;;;;18.80;13.48;;;;;;;;;;5022436;28;20676;-70
2021/09/25 05:35:06;;;;;;;21.25;13.57;;;;;;;;;;5014270;28;20688;-71
2021/09/25 05:37:31;;;;;;;22.50;12.80;;;;;;;;;;5021600;28;20766;-70
2021/09/25 05:39:57;;;;;;;23.17;13.88;;;;;;;;;;5012758;28;20214;-70
2021/09/25 05:42:25;;;;;;;21.25;12.45;;;;;;;;;;5019805;28;20189;-70
2021/09/25 05:44:50;;;;;;;20.85;13.70;;;;;;;;;;5015373;28;20189;-70
2021/09/25 05:47:16;;;;;;;23.95;13.43;;;;;;;;;;5022672;28;20554;-70
2021/09/25 05:49:44;;;;;;;24.10;14.63;;;;;;;;;;5013857;28;20601;-70
2021/09/25 05:52:10;;;;;;;21.67;13.07;;;;;;;;;;5021540;28;20198;-70
2021/09/25 05:54:36;;;;;;;24.75;14.40;;;;;;;;;;5020602;28;20188;-70
2021/09/25 05:57:02;;;;;;;24.20;15.60;;;;;;;;;;5011065;28;20711;-70
2021/09/25 05:59:28;;;;;;;25.05;14.05;;;;;;;;;;5022420;28;20213;-70
2021/09/25 06:01:53;;;;;;;20.55;13.75;;;;;;;;;;5011213;28;20196;-70
2021/09/25 06:04:18;;;;;;;23.50;14.35;;;;;;;;;;5021944;28;20296;-70
2021/09/25 06:06:44;;;;;;;29.90;15.25;;;;;;;;;;5014151;28;20229;-71
2021/09/25 06:09:09;;;;;;;24.13;14.13;;;;;;;;;;5019802;28;20239;-71
2021/09/25 06:11:34;;;;;;;26.10;15.52;;;;;;;;;;5014480;28;20201;-70
2021/09/25 06:14:00;;;;;;;23.05;14.68;;;;;;;;;;5023712;28;20185;-70
2021/09/25 06:16:25;;;;;;;23.70;14.27;;;;;;;;;;5014087;28;20209;-70
2021/09/25 06:18:50;;;;;;;25.27;14.80;;;;;;;;;;5021841;28;20205;-70
2021/09/25 06:21:16;;;;;;;23.98;15.45;;;;;;;;;;5016938;28;20227;-70
2021/09/25 06:23:41;;;;;;;27.17;14.90;;;;;;;;;;5016133;28;20193;-70
2021/09/25 06:26:08;;;;;;;25.33;15.05;;;;;;;;;;5017246;28;20200;-70
2021/09/25 06:28:34;;;;;;;26.02;14.95;;;;;;;;;;5011181;28;20196;-70
2021/09/25 06:30:59;;;;;;;26.27;14.10;;;;;;;;;;5019986;28;20245;-70
2021/09/25 06:33:24;;;;;;;25.45;14.75;;;;;;;;;;5014929;28;20198;-70
2021/09/25 06:35:50;;;;;;;26.73;15.60;;;;;;;;;;5019727;28;20309;-70
2021/09/25 06:38:15;;;;;;;25.42;14.95;;;;;;;;;;5012599;28;20190;-71
2021/09/25 06:40:40;;;;;;;26.00;15.45;;;;;;;;;;5019968;28;20208;-69
2021/09/25 06:43:06;;;;;;;21.38;14.50;;;;;;;;;;5013797;28;20514;-70
2021/09/25 06:45:35;;;;;;;24.38;15.30;;;;;;;;;;5020742;28;20265;-70
2021/09/25 06:48:01;;;;;;;28.73;14.45;;;;;;;;;;5011832;28;20602;-70
2021/09/25 06:50:26;;;;;;;28.05;15.95;;;;;;;;;;5018418;28;20185;-70
2021/09/25 06:52:51;;;;;;;22.45;15.35;;;;;;;;;;5016337;28;20205;-70
2021/09/25 06:55:17;;;;;;;23.52;15.43;;;;;;;;;;5013410;28;20190;-70
2021/09/25 06:57:42;;;;;;;26.35;14.77;;;;;;;;;;5025407;28;20243;-70
2021/09/25 07:00:08;;;;;;;21.88;14.48;;;;;;;;;;5017062;28;20603;-70
2021/09/25 07:02:38;;;;;;;28.25;15.35;;;;;;;;;;5027368;28;20182;-70
2021/09/25 07:05:04;;;;;;;27.63;14.98;;;;;;;;;;5020130;28;20230;-70
2021/09/25 07:07:30;;;;;;;25.38;15.27;;;;;;;;;;5029571;28;20201;-70
2021/09/25 07:09:55;;;;;;;23.75;14.23;;;;;;;;;;5024430;28;20947;-70
2021/09/25 07:12:20;;;;;;;20.90;14.00;;;;;;;;;;5032300;28;20224;-70
2021/09/25 07:14:46;;;;;;;24.33;14.63;;;;;;;;;;5028686;28;20197;-69
2021/09/25 07:17:11;;;;;;;23.15;14.25;;;;;;;;;;5036794;28;20189;-69
2021/09/25 07:19:36;;;;;;;22.58;13.80;;;;;;;;;;5022928;28;20997;-70
2021/09/25 07:22:02;;;;;;;24.17;15.23;;;;;;;;;;5031797;28;20200;-69
2021/09/25 07:24:27;;;;;;;19.13;14.30;;;;;;;;;;5032739;28;20181;-69
2021/09/25 07:26:52;;;;;;;20.63;12.88;;;;;;;;;;5026307;28;20185;-69
2021/09/25 07:29:18;;;;;;;23.92;14.45;;;;;;;;;;5030717;28;20629;-70
2021/09/25 07:31:43;;;;;;;24.02;14.73;;;;;;;;;;5025482;28;20198;-70
2021/09/25 07:34:09;;;;;;;26.23;14.30;;;;;;;;;;5032813;28;20235;-70
2021/09/25 07:36:34;;;;;;;25.05;14.85;;;;;;;;;;5022168;28;20546;-70
2021/09/25 07:38:59;;;;;;;28.15;13.85;;;;;;;;;;5028906;28;20359;-70
2021/09/25 07:41:25;;;;;;;20.70;12.93;;;;;;;;;;5025750;28;20663;-70
2021/09/25 07:43:51;;;;;;;19.92;14.25;;;;;;;;;;5032319;28;20192;-70
2021/09/25 07:46:17;;;;;;;24.25;14.80;;;;;;;;;;5022467;28;20197;-70
2021/09/25 07:48:42;;;;;;;27.35;14.38;;;;;;;;;;5032723;28;20512;-70
2021/09/25 07:51:08;;;;;;;26.48;13.80;;;;;;;;;;5019412;28;21122;-69
2021/09/25 07:53:33;;;;;;;22.85;13.85;;;;;;;;;;5031794;28;20197;-70
2021/09/25 07:55:59;;;;;;;23.40;15.15;;;;;;;;;;5026635;28;20671;-70
2021/09/25 07:58:24;;;;;;;22.95;13.80;;;;;;;;;;5006457;28;20656;-70
2021/09/25 08:00:51;;;;;;;22.30;14.43;;;;;;;;;;5025147;28;20626;-70
2021/09/25 08:03:17;;;;;;;23.25;13.65;;;;;;;;;;5015299;28;20208;-70
2021/09/25 08:05:42;;;;;;;24.52;14.25;;;;;;;;;;5024374;28;20241;-70
2021/09/25 08:08:08;;;;;;;24.55;14.10;;;;;;;;;;5016720;28;20277;-70
2021/09/25 08:10:33;;;;;;;20.23;14.13;;;;;;;;;;5024777;28;20211;-70
2021/09/25 08:12:58;;;;;;;23.50;14.00;;;;;;;;;;5021182;28;20215;-70
2021/09/25 08:15:24;;;;;;;20.77;13.65;;;;;;;;;;5026293;28;20190;-70
2021/09/25 08:17:49;;;;;;;21.20;12.93;;;;;;;;;;5018919;28;20193;-70
2021/09/25 08:20:16;;;;;;;19.40;13.45;;;;;;;;;;5025856;28;20701;-70
2021/09/25 08:22:44;;;;;;;21.55;13.48;;;;;;;;;;5025064;28;20182;-70
2021/09/25 08:25:10;;;;;;;20.15;12.10;;;;;;;;;;5023058;28;20532;-70
2021/09/25 08:27:35;;;;;;;19.35;12.85;;;;;;;;;;5022651;28;20193;-69
2021/09/25 08:30:05;;;;;;;20.08;13.52;;;;;;;;;;5016807;28;20667;-70
2021/09/25 08:32:31;;;;;;;18.00;12.13;;;;;;;;;;5029474;28;20217;-70
2021/09/25 08:34:56;;;;;;;21.17;12.93;;;;;;;;;;5024108;28;20212;-70
2021/09/25 08:37:21;;;;;;;21.40;13.43;;;;;;;;;;5026772;28;20182;-70
2021/09/25 08:39:47;;;;;;;21.80;13.20;;;;;;;;;;5018920;28;20202;-70
2021/09/25 08:42:15;;;;;;;22.75;13.48;;;;;;;;;;5026457;28;20190;-71
2021/09/25 08:44:43;;;;;;;20.20;13.40;;;;;;;;;;5023227;28;20274;-70
2021/09/25 08:47:08;;;;;;;19.40;12.27;;;;;;;;;;5031840;28;20186;-70
2021/09/25 08:49:34;;;;;;;18.20;11.90;;;;;;;;;;5019397;28;22695;-71
2021/09/25 08:52:00;;;;;;;19.50;12.90;;;;;;;;;;5027277;28;20198;-70
2021/09/25 08:54:26;;;;;;;18.98;13.57;;;;;;;;;;5019508;28;20190;-70
2021/09/25 08:56:51;;;;;;;20.98;12.90;;;;;;;;;;5026678;28;20189;-70
2021/09/25 08:59:16;;;;;;;22.67;14.60;;;;;;;;;;5031732;28;20235;-70
2021/09/25 09:01:43;;;;;;;20.15;13.50;;;;;;;;;;5022858;28;20189;-70
2021/09/25 09:04:10;;;;;;;21.05;13.30;;;;;;;;;;5031091;28;20197;-70
2021/09/25 09:06:36;;;;;;;22.13;12.95;;;;;;;;;;4987424;28;1026856;-70
2021/09/25 09:09:07;;;;;;;22.60;13.40;;;;;;;;;;5031167;28;20193;-70
2021/09/25 09:11:35;;;;;;;18.83;13.55;;;;;;;;;;5022495;28;20217;-70
2021/09/25 09:14:02;;;;;;;24.48;13.20;;;;;;;;;;5029879;28;20235;-70
2021/09/25 09:16:30;;;;;;;20.23;13.50;;;;;;;;;;5021717;28;20186;-70
2021/09/25 09:18:57;;;;;;;16.92;12.00;;;;;;;;;;5028759;28;20213;-70
2021/09/25 09:21:25;;;;;;;19.73;13.40;;;;;;;;;;5019814;28;20645;-70
2021/09/25 09:23:59;;;;;;;19.90;13.40;;;;;;;;;;5027956;28;20222;-70
2021/09/25 09:26:27;;;;;;;20.80;12.13;;;;;;;;;;5022595;28;20201;-71
2021/09/25 09:28:55;;;;;;;15.88;11.68;;;;;;;;;;5028241;28;20286;-71
2021/09/25 09:31:20;;;;;;;24.85;14.65;;;;;;;;;;5023718;28;20329;-70
2021/09/25 09:33:51;;;;;;;20.83;13.80;;;;;;;;;;5026761;28;20328;-70
2021/09/25 09:36:28;;;;;;;23.15;13.90;;;;;;;;;;5029850;28;20273;-70
2021/09/25 09:39:04;;;;;;;19.58;13.15;;;;;;;;;;5021846;28;20509;-71
2021/09/25 09:41:33;;;;;;;20.20;13.77;;;;;;;;;;5031572;28;20186;-71
2021/09/25 09:44:23;;;;;;;23.88;13.55;;;;;;;;;;5019994;28;20204;-70
2021/09/25 09:46:51;;;;;;;19.55;13.27;;;;;;;;;;5029411;28;20248;-70
2021/09/25 09:49:32;;;;;;;19.20;12.73;;;;;;;;;;5020113;28;20193;-70
2021/09/25 09:52:08;;;;;;;18.92;12.55;;;;;;;;;;5030935;28;20295;-70
2021/09/25 09:54:39;;;;;;;25.05;12.95;;;;;;;;;;5021489;28;20194;-70
2021/09/25 09:57:17;;;;;;;20.80;13.85;;;;;;;;;;5029333;28;20217;-71
2021/09/25 09:59:45;;;;;;;20.55;12.93;;;;;;;;;;5021509;28;20264;-71
2021/09/25 10:02:11;;;;;;;20.17;13.05;;;;;;;;;;5025928;28;20197;-71
2021/09/25 10:04:38;;;;;;;22.35;13.93;;;;;;;;;;5022367;28;20200;-71
2021/09/25 10:07:04;;;;;;;22.50;14.32;;;;;;;;;;5028634;28;20221;-71
2021/09/25 10:09:34;;;;;;;23.08;14.05;;;;;;;;;;5018696;28;20189;-71
2021/09/25 10:12:02;;;;;;;21.77;14.10;;;;;;;;;;5025946;28;20197;-71
2021/09/25 10:14:30;;;;;;;20.40;13.95;;;;;;;;;;5019283;28;20202;-70
2021/09/25 10:16:58;;;;;;;22.05;13.93;;;;;;;;;;5027752;28;20185;-70
2021/09/25 10:19:31;;;;;;;21.80;13.43;;;;;;;;;;5022596;28;20924;-71
2021/09/25 10:22:02;;;;;;;24.38;14.65;;;;;;;;;;5027768;28;20190;-70
2021/09/25 10:24:35;;;;;;;20.45;14.55;;;;;;;;;;5017370;28;20274;-70
2021/09/25 10:27:03;;;;;;;18.40;13.90;;;;;;;;;;5029444;28;20188;-71
2021/09/25 10:29:29;;;;;;;20.60;13.70;;;;;;;;;;5016055;28;20256;-70
2021/09/25 10:32:18;;;;;;;17.88;13.95;;;;;;;;;;5031987;28;20197;-70
2021/09/25 10:35:05;;;;;;;20.55;14.00;;;;;;;;;;5022187;28;20190;-71
2021/09/25 10:37:34;;;;;;;21.10;14.70;;;;;;;;;;5026738;28;20193;-70
2021/09/25 10:40:00;;;;;;;20.48;14.63;;;;;;;;;;5024094;28;20255;-71
2021/09/25 10:42:46;;;;;;;20.25;13.70;;;;;;;;;;5025156;28;20224;-70
2021/09/25 10:45:28;;;;;;;19.30;13.25;;;;;;;;;;5022188;28;20196;-70
2021/09/25 10:48:13;;;;;;;19.33;14.38;;;;;;;;;;5027314;28;20298;-71
2021/09/25 10:50:55;;;;;;;20.35;14.05;;;;;;;;;;5018909;28;20185;-70
2021/09/25 10:53:23;;;;;;;21.27;13.95;;;;;;;;;;5030462;28;20189;-70
2021/09/25 10:55:51;;;;;;;20.20;13.02;;;;;;;;;;5025698;28;20221;-70
2021/09/25 10:58:22;;;;;;;19.83;13.27;;;;;;;;;;5010637;28;20733;-71
2021/09/25 11:01:14;;;;;;;25.25;14.85;;;;;;;;;;5029575;28;20184;-70
2021/09/25 11:06:08;;;;;;;20.38;14.90;;;;;;;;;;5031014;28;20658;-70
2021/09/25 11:08:35;;;;;;;20.90;14.20;;;;;;;;;;5024435;28;20265;-71
2021/09/25 11:11:08;;;;;;;19.20;14.32;;;;;;;;;;5028170;28;20274;-70
2021/09/25 11:14:05;;;;;;;18.90;13.20;;;;;;;;;;5022370;28;20194;-70
2021/09/25 11:17:03;;;;;;;21.17;13.50;;;;;;;;;;5028293;28;20185;-70
2021/09/25 11:19:40;;;;;;;21.88;13.82;;;;;;;;;;5029463;28;20637;-70
2021/09/25 11:22:11;;;;;;;21.23;14.45;;;;;;;;;;5030052;28;20217;-70
2021/09/25 11:24:41;;;;;;;26.38;15.43;;;;;;;;;;4329012;28;10000732;-70
2021/09/25 11:27:22;;;;;;;22.77;15.43;;;;;;;;;;5024427;28;20185;-70
2021/09/25 11:29:55;;;;;;;17.70;13.63;;;;;;;;;;5020819;28;20185;-70
2021/09/25 11:32:26;;;;;;;24.60;14.68;;;;;;;;;;5027030;28;20189;-69
2021/09/25 11:34:52;;;;;;;23.67;15.75;;;;;;;;;;5017105;28;20740;-69
2021/09/25 11:37:18;;;;;;;23.13;16.10;;;;;;;;;;5024430;28;20677;-69
2021/09/25 11:39:46;;;;;;;23.13;15.98;;;;;;;;;;5019451;28;20224;-70
2021/09/25 11:42:18;;;;;;;24.73;16.58;;;;;;;;;;5025765;28;20174;-70
2021/09/25 11:44:57;;;;;;;24.23;15.30;;;;;;;;;;5020012;28;20201;-70
2021/09/25 11:47:32;;;;;;;23.60;15.30;;;;;;;;;;5027417;28;20177;-70
2021/09/25 11:50:06;;;;;;;21.02;15.30;;;;;;;;;;5018482;28;20298;-70
2021/09/25 11:52:34;;;;;;;22.88;16.27;;;;;;;;;;5031629;28;20174;-70
2021/09/25 11:55:00;;;;;;;21.77;15.50;;;;;;;;;;5019563;28;20224;-70
2021/09/25 11:57:25;;;;;;;29.10;15.80;;;;;;;;;;5028756;28;20559;-69
2021/09/25 11:59:52;;;;;;;22.60;15.77;;;;;;;;;;5021417;28;20554;-70
2021/09/25 12:02:38;;;;;;;24.55;16.30;;;;;;;;;;5030927;28;20694;-70
2021/09/25 12:05:06;;;;;;;24.48;17.30;;;;;;;;;;5021094;28;20214;-70
2021/09/25 12:07:42;;;;;;;26.23;17.85;;;;;;;;;;5028979;28;20201;-70
2021/09/25 12:10:14;;;;;;;27.02;17.30;;;;;;;;;;5022917;28;20205;-70
2021/09/25 12:12:40;;;;;;;24.08;18.05;;;;;;;;;;5032161;28;20276;-70
2021/09/25 12:15:06;;;;;;;27.05;18.13;;;;;;;;;;5023884;28;20261;-70
2021/09/25 12:17:31;;;;;;;27.00;18.35;;;;;;;;;;5030905;28;20198;-69
2021/09/25 12:20:19;;;;;;;27.73;19.75;;;;;;;;;;5028846;28;20305;-70
2021/09/25 12:22:45;;;;;;;25.67;17.92;;;;;;;;;;5027350;28;20255;-70
2021/09/25 12:25:13;;;;;;;26.45;19.17;;;;;;;;;;5029359;28;20175;-70
2021/09/25 12:27:44;;;;;;;29.67;19.15;;;;;;;;;;5022638;28;20200;-70
2021/09/25 12:30:10;;;;;;;27.25;17.30;;;;;;;;;;5029348;28;20171;-69
2021/09/25 12:32:39;;;;;;;31.85;19.75;;;;;;;;;;5021203;28;20189;-70
2021/09/25 12:35:19;;;;;;;29.80;19.63;;;;;;;;;;5029779;28;20178;-70
2021/09/25 12:37:49;;;;;;;30.17;19.17;;;;;;;;;;5021413;28;20201;-70
2021/09/25 12:40:16;;;;;;;27.52;19.85;;;;;;;;;;5028800;28;20205;-70
2021/09/25 12:42:42;;;;;;;34.85;20.42;;;;;;;;;;5019496;28;20202;-70
2021/09/25 12:45:13;;;;;;;28.77;19.23;;;;;;;;;;5027011;28;20661;-69
2021/09/25 12:47:40;;;;;;;27.35;19.23;;;;;;;;;;5018179;28;20215;-69
2021/09/25 12:50:24;;;;;;;25.85;18.98;;;;;;;;;;5027783;28;20579;-69
2021/09/25 12:52:59;;;;;;;27.80;19.05;;;;;;;;;;5018629;28;20214;-70
2021/09/25 12:55:25;;;;;;;31.27;19.75;;;;;;;;;;5028186;28;20689;-70
2021/09/25 12:57:58;;;;;;;23.73;17.77;;;;;;;;;;5019837;28;20329;-69
2021/09/25 13:00:27;;;;;;;27.10;18.48;;;;;;;;;;5026042;28;20558;-69
2021/09/25 13:02:54;;;;;;;27.48;18.67;;;;;;;;;;5013564;28;20449;-69
2021/09/25 13:05:24;;;;;;;24.27;17.33;;;;;;;;;;5024755;28;20233;-70
2021/09/25 13:07:50;;;;;;;24.77;17.63;;;;;;;;;;5016352;28;20409;-70
2021/09/25 13:10:21;;;;;;;28.90;19.17;;;;;;;;;;5021961;28;20185;-70
2021/09/25 13:12:50;;;;;;;25.40;18.85;;;;;;;;;;5022269;28;20264;-70
2021/09/25 13:15:19;;;;;;;27.60;19.17;;;;;;;;;;5016266;28;20201;-70
2021/09/25 13:17:52;;;;;;;25.30;18.40;;;;;;;;;;5028157;28;20339;-70
2021/09/25 13:20:23;;;;;;;25.02;19.25;;;;;;;;;;5018885;28;20217;-70
2021/09/25 13:22:57;;;;;;;29.80;19.23;;;;;;;;;;5028066;28;20282;-70
2021/09/25 13:25:24;;;;;;;28.45;19.25;;;;;;;;;;5020173;28;20201;-69
2021/09/25 13:27:50;;;;;;;27.13;19.45;;;;;;;;;;5027290;28;20251;-69
2021/09/25 13:30:17;;;;;;;28.20;20.00;;;;;;;;;;5018686;28;20227;-70
2021/09/25 13:32:43;;;;;;;32.50;20.02;;;;;;;;;;5025308;28;20200;-70
2021/09/25 13:35:09;;;;;;;30.02;18.17;;;;;;;;;;5016913;28;20189;-70
2021/09/25 13:37:35;;;;;;;27.65;20.25;;;;;;;;;;5028156;28;20203;-70
2021/09/25 13:40:00;;;;;;;30.48;19.80;;;;;;;;;;5018616;28;20244;-70
2021/09/25 13:42:26;;;;;;;29.75;20.15;;;;;;;;;;5027554;28;20186;-70
2021/09/25 13:44:52;;;;;;;29.98;19.75;;;;;;;;;;5021306;28;20658;-70
2021/09/25 13:47:17;;;;;;;30.13;19.55;;;;;;;;;;5026048;28;20247;-70
2021/09/25 13:49:43;;;;;;;29.98;20.63;;;;;;;;;;5026984;28;20182;-69
2021/09/25 13:52:09;;;;;;;26.42;19.48;;;;;;;;;;5019239;28;20203;-70
2021/09/25 13:54:35;;;;;;;27.23;20.27;;;;;;;;;;5026275;28;20193;-70
2021/09/25 13:57:04;;;;;;;24.90;17.67;;;;;;;;;;5017649;28;20214;-69
2021/09/25 13:59:31;;;;;;;25.63;18.60;;;;;;;;;;5025895;28;20248;-70
2021/09/25 14:01:56;;;;;;;27.38;20.08;;;;;;;;;;5019905;28;20197;-70
2021/09/25 14:04:21;;;;;;;24.10;16.65;;;;;;;;;;4331979;28;10000923;-70
2021/09/25 14:06:47;;;;;;;26.48;19.58;;;;;;;;;;5016418;28;20241;-69
2021/09/25 14:09:12;;;;;;;26.10;18.40;;;;;;;;;;5023789;28;20223;-70
2021/09/25 14:11:37;;;;;;;29.02;18.77;;;;;;;;;;5017747;28;20186;-69
2021/09/25 14:14:03;;;;;;;27.52;18.38;;;;;;;;;;5025356;28;20186;-69
2021/09/25 14:16:28;;;;;;;23.30;18.30;;;;;;;;;;5014389;28;20258;-69
2021/09/25 14:18:53;;;;;;;25.60;18.70;;;;;;;;;;5024528;28;20340;-69
2021/09/25 14:21:20;;;;;;;26.77;18.23;;;;;;;;;;5022086;28;20368;-69
2021/09/25 14:23:46;;;;;;;24.75;18.40;;;;;;;;;;5018944;28;20194;-69